Time;durP1;ratioP1;P1;durP2;ratioP2;P2;SDS_P1;SDS_P2;PMS_P1;PMS_P2;Temp;Humidity;BMP_temperature;BMP_pressure;BME280_temperature;BME280_humidity;BME280_pressure;Samples;Min_cycle;Max_cycle;Signal;HPM_P1;HPM_P2
2022/11/26 00:00:24;;;;;;;25.10;11.13;;;;;;;4.76;100.00;97125.06;5072060;28;20052;-78
2022/11/26 00:02:51;;;;;;;18.92;9.98;;;;;;;4.85;100.00;97128.84;5061550;28;20525;-80
2022/11/26 00:05:17;;;;;;;20.20;10.43;;;;;;;4.81;100.00;97126.97;5052294;28;20056;-79
2022/11/26 00:07:52;;;;;;;19.42;11.38;;;;;;;4.79;100.00;97132.59;5053882;28;20045;-80
2022/11/26 00:10:22;;;;;;;20.40;9.95;;;;;;;4.81;100.00;97127.78;5052070;28;20056;-78
2022/11/26 00:12:49;;;;;;;21.52;10.73;;;;;;;4.88;100.00;97128.34;5052833;28;20041;-78
2022/11/26 00:15:21;;;;;;;20.15;10.02;;;;;;;4.95;100.00;97122.69;5062634;28;20709;-79
2022/11/26 00:17:49;;;;;;;17.98;8.00;;;;;;;5.09;100.00;97128.44;5056572;28;20067;-84
2022/11/26 00:20:16;;;;;;;20.45;9.50;;;;;;;5.10;100.00;97136.28;5052054;28;20041;-81
2022/11/26 00:22:46;;;;;;;19.25;10.38;;;;;;;5.09;100.00;97131.16;5052456;28;20518;-80
2022/11/26 00:25:16;;;;;;;20.17;9.50;;;;;;;4.98;100.00;97133.78;5052249;28;20045;-79
2022/11/26 00:27:42;;;;;;;17.35;10.18;;;;;;;5.00;100.00;97140.81;5052263;28;20045;-79
2022/11/26 00:30:20;;;;;;;21.02;9.60;;;;;;;5.01;100.00;97143.25;5051896;28;20041;-79
2022/11/26 00:32:47;;;;;;;18.88;9.38;;;;;;;5.03;100.00;97146.50;5052246;28;20055;-78
2022/11/26 00:35:14;;;;;;;21.45;8.75;;;;;;;5.10;100.00;97135.47;5061314;28;20036;-79
2022/11/26 00:37:44;;;;;;;20.58;8.80;;;;;;;5.05;100.00;97138.94;5071518;28;20044;-78
2022/11/26 00:40:23;;;;;;;17.33;8.15;;;;;;;5.07;100.00;97138.72;5071571;28;20044;-78
2022/11/26 00:42:51;;;;;;;17.98;8.60;;;;;;;5.12;100.00;97144.13;5071442;28;20406;-79
2022/11/26 00:45:21;;;;;;;20.90;8.63;;;;;;;5.07;100.00;97146.81;5070029;28;20399;-80
2022/11/26 00:47:48;;;;;;;14.45;8.05;;;;;;;5.11;100.00;97148.69;5071879;28;20044;-82
2022/11/26 00:50:16;;;;;;;17.15;8.65;;;;;;;5.07;100.00;97158.41;5071359;28;20415;-78
2022/11/26 00:52:44;;;;;;;19.48;8.70;;;;;;;5.05;100.00;97155.13;5071744;28;20048;-78
2022/11/26 00:55:27;;;;;;;22.75;8.35;;;;;;;5.08;100.00;97154.63;5070710;28;20048;-80
2022/11/26 00:57:53;;;;;;;17.27;8.23;;;;;;;5.00;100.00;97159.72;5071025;28;20044;-78
2022/11/26 01:00:22;;;;;;;15.57;7.90;;;;;;;5.04;100.00;97161.63;5070824;28;20637;-79
2022/11/26 01:02:49;;;;;;;15.13;8.35;;;;;;;5.08;100.00;97164.63;5071108;28;20054;-82
2022/11/26 01:05:16;;;;;;;15.63;8.25;;;;;;;5.12;100.00;97160.31;5051135;28;20056;-79
2022/11/26 01:07:44;;;;;;;16.17;7.47;;;;;;;5.16;100.00;97161.41;5054480;28;20072;-79
2022/11/26 01:10:20;;;;;;;15.57;7.00;;;;;;;5.24;100.00;97169.00;5070822;28;20041;-80
2022/11/26 01:12:49;;;;;;;14.20;7.10;;;;;;;5.28;100.00;97169.31;5067773;28;20044;-77
2022/11/26 01:15:16;;;;;;;17.95;7.22;;;;;;;5.29;100.00;97177.13;5070544;28;20052;-76
2022/11/26 01:17:43;;;;;;;18.42;7.15;;;;;;;5.21;100.00;97180.31;5071199;28;20509;-79
2022/11/26 01:20:22;;;;;;;13.20;7.20;;;;;;;5.34;100.00;97179.84;5059200;28;20041;-78
2022/11/26 01:22:49;;;;;;;14.20;6.90;;;;;;;5.23;100.00;97187.09;5070786;28;20127;-82
2022/11/26 01:25:16;;;;;;;13.45;7.22;;;;;;;5.17;100.00;97190.03;5070385;28;20045;-78
2022/11/26 01:27:43;;;;;;;16.25;7.13;;;;;;;5.08;100.00;97186.22;5070720;28;20529;-79
2022/11/26 01:30:18;;;;;;;15.60;6.38;;;;;;;5.04;100.00;97191.31;5070266;28;20037;-79
2022/11/26 01:32:44;;;;;;;13.23;7.10;;;;;;;5.09;100.00;97193.22;5070323;28;20524;-79
2022/11/26 01:35:12;;;;;;;15.57;6.18;;;;;;;5.19;100.00;97196.00;5070182;28;20043;-79
2022/11/26 01:37:38;;;;;;;14.43;6.18;;;;;;;5.07;100.00;97206.19;5070929;28;20045;-81
2022/11/26 01:40:28;;;;;;;15.32;6.55;;;;;;;5.07;100.00;97206.19;5055582;28;20064;-78
2022/11/26 01:42:58;;;;;;;13.88;7.70;;;;;;;4.95;100.00;97199.09;5057048;28;20052;-78
2022/11/26 01:45:27;;;;;;;15.82;7.10;;;;;;;5.08;100.00;97197.00;5059774;28;20045;-79
2022/11/26 01:47:53;;;;;;;12.35;6.90;;;;;;;5.08;100.00;97202.41;5070558;28;20067;-81
2022/11/26 01:50:51;;;;;;;15.48;6.95;;;;;;;5.03;100.00;97199.69;5070166;28;20045;-78
2022/11/26 01:53:26;;;;;;;16.45;7.43;;;;;;;5.10;100.00;97213.75;5069460;28;20110;-78
2022/11/26 01:55:57;;;;;;;17.10;7.45;;;;;;;5.13;100.00;97213.25;5070624;28;20036;-80
2022/11/26 01:58:29;;;;;;;14.27;6.60;;;;;;;5.01;100.00;97207.22;5055277;28;20045;-80
2022/11/26 02:00:57;;;;;;;15.32;7.20;;;;;;;5.09;100.00;97215.63;5050706;28;20499;-82
2022/11/26 02:03:24;;;;;;;12.63;5.80;;;;;;;5.23;100.00;97213.28;5053174;28;20077;-80
2022/11/26 02:05:58;;;;;;;13.32;5.85;;;;;;;5.09;100.00;97214.84;5070537;28;20040;-80
2022/11/26 02:08:28;;;;;;;14.45;6.00;;;;;;;5.20;100.00;97213.81;5069919;28;20123;-79
2022/11/26 02:10:54;;;;;;;15.52;5.85;;;;;;;5.16;100.00;97218.91;5053772;28;20131;-78
2022/11/26 02:13:22;;;;;;;12.50;6.03;;;;;;;5.24;100.00;97217.63;5056958;28;20121;-81
2022/11/26 02:15:57;;;;;;;12.18;6.47;;;;;;;5.30;100.00;97227.34;5050308;28;20123;-80
2022/11/26 02:18:31;;;;;;;15.05;6.68;;;;;;;5.21;100.00;97228.94;5051076;28;20123;-79
2022/11/26 02:21:04;;;;;;;13.30;5.93;;;;;;;5.21;100.00;97226.22;5050483;28;20124;-78
2022/11/26 02:23:59;;;;;;;10.60;5.68;;;;;;;5.36;100.00;97226.31;5049905;28;20136;-79
2022/11/26 02:26:43;;;;;;;11.60;5.90;;;;;;;5.31;100.00;97226.28;5050029;28;20128;-79
2022/11/26 02:29:20;;;;;;;9.82;5.30;;;;;;;5.37;100.00;97222.53;5049634;28;20155;-79
2022/11/26 02:31:51;;;;;;;11.57;5.35;;;;;;;5.21;100.00;97234.31;5050120;28;20052;-80
2022/11/26 02:34:25;;;;;;;15.05;5.97;;;;;;;5.22;100.00;97227.88;5050121;28;20044;-81
2022/11/26 02:36:57;;;;;;;11.50;5.18;;;;;;;5.26;100.00;97242.47;5050091;28;20495;-80
2022/11/26 02:39:25;;;;;;;13.15;5.25;;;;;;;5.29;100.00;97241.94;5049736;28;20047;-79
2022/11/26 02:41:55;;;;;;;13.82;5.35;;;;;;;5.10;100.00;97235.34;5050178;28;20041;-78
2022/11/26 02:44:25;;;;;;;16.33;5.00;;;;;;;5.16;100.00;97242.41;5063265;28;20052;-78
2022/11/26 02:46:58;;;;;;;12.38;5.57;;;;;;;5.06;100.00;97242.34;5050175;28;20048;-78
2022/11/26 02:49:26;;;;;;;;;;;;;;;5.12;100.00;97242.13;5049940;28;20047;-79
2022/11/26 02:51:57;;;;;;;8.43;4.47;;;;;;;5.20;100.00;97244.31;5050040;28;19974;-78
2022/11/26 02:54:25;;;;;;;11.27;4.40;;;;;;;5.29;100.00;97236.53;5064825;28;20055;-78
2022/11/26 02:56:53;;;;;;;10.38;4.80;;;;;;;5.19;100.00;97250.00;5069765;28;20491;-79
2022/11/26 02:59:20;;;;;;;10.07;4.43;;;;;;;5.35;100.00;97243.59;5069189;28;20048;-79
2022/11/26 03:01:54;;;;;;;18.02;5.13;;;;;;;5.32;100.00;97241.41;5069969;28;20064;-79
2022/11/26 03:04:25;;;;;;;12.73;4.88;;;;;;;5.42;99.77;97252.25;5069069;28;20048;-79
2022/11/26 03:06:55;;;;;;;9.23;4.28;;;;;;;5.33;100.00;97253.84;5069843;28;20487;-77
2022/11/26 03:09:22;;;;;;;13.88;5.00;;;;;;;5.20;100.00;97249.72;5063807;28;20037;-77
2022/11/26 03:11:49;;;;;;;11.90;4.80;;;;;;;5.23;100.00;97253.81;5049772;28;20059;-80
2022/11/26 03:14:16;;;;;;;11.82;5.10;;;;;;;5.12;100.00;97252.13;5066562;28;20036;-80
2022/11/26 03:16:42;;;;;;;10.25;4.40;;;;;;;5.15;100.00;97251.56;5069864;28;20049;-78
2022/11/26 03:19:09;;;;;;;9.75;4.55;;;;;;;5.17;100.00;97252.16;5064789;28;20037;-80
2022/11/26 03:21:37;;;;;;;13.27;4.95;;;;;;;5.18;100.00;97256.47;5065500;28;20119;-79
2022/11/26 03:24:04;;;;;;;11.63;4.72;;;;;;;5.13;100.00;97251.03;5063027;28;20511;-82
2022/11/26 03:26:30;;;;;;;10.43;4.65;;;;;;;5.14;100.00;97261.56;5073618;28;20047;-81
2022/11/26 03:28:57;;;;;;;10.55;5.22;;;;;;;5.12;100.00;97252.13;5073410;28;20055;-83
2022/11/26 03:31:23;;;;;;;10.52;4.60;;;;;;;5.06;100.00;97258.53;5072633;28;20044;-80
2022/11/26 03:33:50;;;;;;;13.38;5.18;;;;;;;5.14;100.00;97258.06;5071859;28;20482;-81
2022/11/26 03:36:17;;;;;;;8.18;4.68;;;;;;;5.10;100.00;97254.25;5072793;28;20041;-82
2022/11/26 03:38:44;;;;;;;10.90;4.78;;;;;;;5.03;100.00;97256.38;5073294;28;20067;-80
2022/11/26 03:41:11;;;;;;;13.65;4.68;;;;;;;4.97;100.00;97261.75;5072842;28;20381;-80
2022/11/26 03:43:38;;;;;;;11.90;5.40;;;;;;;5.00;100.00;97254.19;5065347;28;20051;-82
2022/11/26 03:46:04;;;;;;;11.02;4.35;;;;;;;5.03;100.00;97253.69;5072406;28;20055;-80
2022/11/26 03:48:31;;;;;;;14.75;5.47;;;;;;;5.10;100.00;97259.66;5072919;28;20127;-78
2022/11/26 03:50:57;;;;;;;15.15;4.88;;;;;;;5.02;100.00;97257.44;5072980;28;20046;-83
2022/11/26 03:53:24;;;;;;;15.48;4.47;;;;;;;5.17;100.00;97268.34;5071471;28;20051;-81
2022/11/26 03:55:52;;;;;;;14.40;4.80;;;;;;;5.14;100.00;97266.16;5073120;28;20162;-80
2022/11/26 03:58:19;;;;;;;10.10;5.10;;;;;;;5.19;100.00;97279.69;5071980;28;20037;-80
2022/11/26 04:00:45;;;;;;;11.70;5.18;;;;;;;5.05;100.00;97278.50;5073029;28;20058;-78
2022/11/26 04:03:12;;;;;;;12.52;5.43;;;;;;;5.15;100.00;97283.97;5072350;28;20093;-82
2022/11/26 04:05:39;;;;;;;9.45;4.60;;;;;;;5.24;99.96;97282.41;5056733;28;20044;-76
2022/11/26 04:08:05;;;;;;;11.52;5.18;;;;;;;5.11;100.00;97285.56;5052533;28;20044;-78
2022/11/26 04:10:32;;;;;;;11.98;5.53;;;;;;;5.14;100.00;97293.16;5058406;28;20044;-79
2022/11/26 04:13:00;;;;;;;11.50;4.82;;;;;;;5.17;100.00;97285.34;5066806;28;20044;-84
2022/11/26 04:15:26;;;;;;;13.80;5.22;;;;;;;5.08;100.00;97286.91;5069634;28;20044;-81
2022/11/26 04:17:53;;;;;;;12.95;5.80;;;;;;;5.01;100.00;97288.19;5052695;28;20407;-80
2022/11/26 04:20:19;;;;;;;13.35;5.68;;;;;;;4.89;100.00;97286.50;5051817;28;20059;-77
2022/11/26 04:22:46;;;;;;;10.82;5.22;;;;;;;5.14;100.00;97293.16;5052571;28;20032;-84
2022/11/26 04:25:12;;;;;;;11.35;5.30;;;;;;;5.18;100.00;97297.78;5051847;28;20041;-82
2022/11/26 04:27:39;;;;;;;10.40;5.38;;;;;;;5.14;100.00;97303.97;5052600;28;20045;-81
2022/11/26 04:30:08;;;;;;;13.55;5.30;;;;;;;5.20;100.00;97308.31;5052309;28;20500;-78
2022/11/26 04:32:35;;;;;;;10.55;5.45;;;;;;;5.04;100.00;97309.28;5052323;28;20045;-81
2022/11/26 04:35:02;;;;;;;12.82;5.72;;;;;;;5.23;100.00;97313.22;5051895;28;20045;-83
2022/11/26 04:37:29;;;;;;;12.38;5.55;;;;;;;5.07;100.00;97316.88;5052239;28;20131;-80
2022/11/26 04:39:55;;;;;;;14.48;5.13;;;;;;;5.00;100.00;97324.38;5052211;28;20063;-84
2022/11/26 04:42:22;;;;;;;11.25;5.72;;;;;;;5.05;100.00;97327.09;5068039;28;20071;-81
2022/11/26 04:44:48;;;;;;;15.30;6.35;;;;;;;5.02;100.00;97323.03;5064687;28;20048;-83
2022/11/26 04:47:16;;;;;;;17.05;5.72;;;;;;;4.98;100.00;97328.13;5071572;28;20041;-79
2022/11/26 04:49:43;;;;;;;13.07;5.68;;;;;;;4.97;100.00;97342.72;5071576;28;20553;-82
2022/11/26 04:52:09;;;;;;;18.10;5.95;;;;;;;4.96;100.00;97341.09;5062720;28;20045;-82
2022/11/26 04:54:36;;;;;;;14.48;5.97;;;;;;;5.06;100.00;97350.31;5052157;28;20037;-80
2022/11/26 04:57:03;;;;;;;13.40;5.70;;;;;;;5.05;100.00;97344.09;5051477;28;20033;-79
2022/11/26 04:59:29;;;;;;;18.98;6.43;;;;;;;5.16;100.00;97361.19;5051580;28;20052;-80
2022/11/26 05:01:58;;;;;;;15.80;6.38;;;;;;;5.09;100.00;97355.22;5051807;28;20399;-79
2022/11/26 05:04:26;;;;;;;14.52;6.38;;;;;;;5.06;100.00;97356.53;5058836;28;20052;-78
2022/11/26 05:06:52;;;;;;;11.50;5.80;;;;;;;5.21;100.00;97366.63;5071489;28;20044;-82
2022/11/26 05:09:19;;;;;;;15.30;5.80;;;;;;;5.15;100.00;97365.78;5071008;28;20048;-79
2022/11/26 05:11:45;;;;;;;16.83;5.95;;;;;;;5.18;100.00;97369.88;5071216;28;20637;-78
2022/11/26 05:14:12;;;;;;;16.42;5.25;;;;;;;5.15;100.00;97371.19;5068655;28;20046;-83
2022/11/26 05:16:39;;;;;;;15.02;5.97;;;;;;;5.28;100.00;97369.94;5071136;28;20120;-81
2022/11/26 05:19:05;;;;;;;13.13;5.85;;;;;;;5.06;100.00;97366.50;5070555;28;20506;-77
2022/11/26 05:21:33;;;;;;;14.43;6.22;;;;;;;5.14;100.00;97374.16;5071187;28;20078;-79
2022/11/26 05:24:00;;;;;;;11.85;5.72;;;;;;;5.14;100.00;97368.75;5067100;28;20503;-77
2022/11/26 05:26:26;;;;;;;11.82;5.43;;;;;;;5.28;100.00;97367.25;5050951;28;20045;-81
2022/11/26 05:28:53;;;;;;;15.23;6.25;;;;;;;5.18;100.00;97369.88;5051049;28;20049;-78
2022/11/26 05:31:19;;;;;;;11.90;5.75;;;;;;;5.12;100.00;97370.91;5065744;28;20052;-82
2022/11/26 05:33:46;;;;;;;15.88;6.95;;;;;;;4.97;100.00;97368.91;5069822;28;20040;-78
2022/11/26 05:36:12;;;;;;;16.98;6.30;;;;;;;5.00;100.00;97381.03;5050489;28;20045;-81
2022/11/26 05:38:40;;;;;;;12.88;6.05;;;;;;;5.13;100.00;97383.34;5051165;28;20067;-78
2022/11/26 05:41:07;;;;;;;13.30;6.40;;;;;;;5.18;100.00;97383.38;5050471;28;20049;-81
2022/11/26 05:43:34;;;;;;;12.82;6.38;;;;;;;5.06;100.00;97393.50;5061521;28;20048;-79
2022/11/26 05:46:04;;;;;;;13.77;6.68;;;;;;;5.08;100.00;97392.19;5050645;28;20105;-79
2022/11/26 05:48:31;;;;;;;12.27;6.47;;;;;;;5.13;100.00;97394.13;5050060;28;20083;-78
2022/11/26 05:50:58;;;;;;;13.98;6.07;;;;;;;5.19;100.00;97398.50;5049997;28;20105;-79
2022/11/26 05:53:24;;;;;;;13.50;6.43;;;;;;;5.14;100.00;97395.75;5049379;28;20041;-79
2022/11/26 05:55:52;;;;;;;16.65;6.93;;;;;;;5.12;100.00;97400.59;5068831;28;20048;-78
2022/11/26 05:58:19;;;;;;;16.20;6.72;;;;;;;5.31;100.00;97407.22;5068815;28;20094;-80
2022/11/26 06:00:45;;;;;;;16.90;6.80;;;;;;;5.18;100.00;97410.38;5069711;28;20039;-78
2022/11/26 06:03:12;;;;;;;18.17;7.03;;;;;;;5.18;100.00;97407.69;5069277;28;20064;-80
2022/11/26 06:05:39;;;;;;;21.17;7.65;;;;;;;5.24;100.00;97412.03;5068860;28;20052;-80
2022/11/26 06:08:05;;;;;;;16.63;7.07;;;;;;;5.24;100.00;97414.75;5069431;28;20063;-78
2022/11/26 06:10:32;;;;;;;13.95;6.53;;;;;;;5.24;100.00;97412.03;5069422;28;20044;-82
2022/11/26 06:13:00;;;;;;;15.45;6.93;;;;;;;5.23;100.00;97421.22;5062139;28;20099;-79
2022/11/26 06:15:26;;;;;;;16.90;6.60;;;;;;;5.26;100.00;97419.88;5053261;28;20041;-78
2022/11/26 06:17:53;;;;;;;12.63;6.40;;;;;;;5.40;100.00;97424.59;5049382;28;20389;-80
2022/11/26 06:20:19;;;;;;;13.35;6.50;;;;;;;5.38;100.00;97424.03;5048758;28;20557;-78
2022/11/26 06:22:46;;;;;;;18.55;7.05;;;;;;;5.12;100.00;97430.31;5049271;28;20056;-78
2022/11/26 06:25:14;;;;;;;13.77;6.50;;;;;;;5.26;100.00;97422.56;5061745;28;20036;-78
2022/11/26 06:27:41;;;;;;;19.23;7.20;;;;;;;5.16;100.00;97426.00;5056357;28;20047;-78
2022/11/26 06:30:11;;;;;;;18.08;7.10;;;;;;;5.09;100.00;97428.09;5064840;28;20520;-79
2022/11/26 06:32:37;;;;;;;13.45;7.70;;;;;;;5.25;100.00;97435.28;5069353;28;20049;-81
2022/11/26 06:35:05;;;;;;;14.52;6.95;;;;;;;5.21;100.00;97429.56;5068535;28;20051;-78
2022/11/26 06:37:31;;;;;;;15.50;7.75;;;;;;;5.11;100.00;97428.66;5069289;28;20044;-79
2022/11/26 06:39:58;;;;;;;14.50;6.68;;;;;;;5.20;100.00;97435.22;5068831;28;20067;-78
2022/11/26 06:42:24;;;;;;;16.13;7.28;;;;;;;5.25;100.00;97435.28;5066007;28;20048;-79
2022/11/26 06:44:51;;;;;;;14.68;7.30;;;;;;;5.09;100.00;97436.22;5061138;28;20047;-78
2022/11/26 06:47:19;;;;;;;14.88;7.18;;;;;;;5.02;100.00;97446.41;5048825;28;20041;-79
2022/11/26 06:50:22;;;;;;;16.75;7.03;;;;;;;5.20;100.00;97440.63;5116279;27;20392;-77
2022/11/26 06:52:50;;;;;;;15.95;7.53;;;;;;;5.16;100.00;97448.41;5114445;28;20039;-77
2022/11/26 06:55:17;;;;;;;19.75;7.22;;;;;;;5.26;100.00;97453.09;5114691;27;20047;-78
2022/11/26 06:57:44;;;;;;;13.13;7.13;;;;;;;5.16;100.00;97464.63;5115187;28;20039;-78
2022/11/26 07:00:11;;;;;;;18.30;8.52;;;;;;;5.06;100.00;97461.00;5114588;28;20113;-77
2022/11/26 07:02:38;;;;;;;16.02;7.35;;;;;;;5.24;100.00;97457.94;5113836;28;20490;-76
2022/11/26 07:05:05;;;;;;;14.38;7.55;;;;;;;5.30;100.00;97470.41;5115104;27;20036;-78
2022/11/26 07:07:36;;;;;;;18.65;7.72;;;;;;;5.28;100.00;97467.19;5114414;27;20131;-77
2022/11/26 07:10:02;;;;;;;14.13;7.53;;;;;;;5.26;100.00;97484.69;5113262;27;20116;-77
2022/11/26 07:12:29;;;;;;;15.63;7.40;;;;;;;5.41;100.00;97482.94;5116169;28;20047;-77
2022/11/26 07:14:56;;;;;;;14.02;7.20;;;;;;;5.33;100.00;97496.13;5102403;28;20036;-78
2022/11/26 07:17:23;;;;;;;22.90;7.47;;;;;;;5.38;100.00;97499.69;5113327;28;20047;-77
2022/11/26 07:19:49;;;;;;;14.52;7.03;;;;;;;5.37;100.00;97486.41;5113871;28;20071;-77
2022/11/26 07:22:16;;;;;;;16.83;6.68;;;;;;;5.41;100.00;97491.03;5113749;28;20047;-77
2022/11/26 07:24:44;;;;;;;16.65;6.75;;;;;;;5.43;100.00;97502.41;5113951;28;20483;-77
2022/11/26 07:27:11;;;;;;;15.07;7.22;;;;;;;5.33;100.00;97502.34;5113470;28;20054;-77
2022/11/26 07:29:37;;;;;;;14.05;6.80;;;;;;;5.36;100.00;97511.78;5112986;28;20146;-78
2022/11/26 07:32:04;;;;;;;14.00;6.38;;;;;;;5.54;100.00;97513.31;5111566;28;20040;-77
2022/11/26 07:34:31;;;;;;;14.75;6.75;;;;;;;5.38;100.00;97518.59;5112559;28;20047;-76
2022/11/26 07:36:58;;;;;;;15.77;6.50;;;;;;;5.49;100.00;97520.31;5112269;28;20117;-76
2022/11/26 07:39:24;;;;;;;13.57;6.38;;;;;;;5.30;100.00;97513.63;5112579;28;20100;-77
2022/11/26 07:41:52;;;;;;;15.48;6.68;;;;;;;5.36;100.00;97522.59;5111512;28;20040;-77
2022/11/26 07:44:19;;;;;;;18.75;7.07;;;;;;;5.26;100.00;97517.09;5113791;28;20046;-77
2022/11/26 07:46:45;;;;;;;16.25;7.65;;;;;;;5.15;100.00;97516.19;5113289;28;20044;-78
2022/11/26 07:49:12;;;;;;;15.20;7.15;;;;;;;5.05;100.00;97513.38;5115059;28;20081;-78
2022/11/26 07:51:38;;;;;;;14.50;7.30;;;;;;;4.92;100.00;97507.31;5115239;28;20054;-78
2022/11/26 07:54:07;;;;;;;12.88;6.78;;;;;;;4.83;100.00;97508.81;5112662;28;20529;-77
2022/11/26 07:56:34;;;;;;;17.10;7.55;;;;;;;4.66;100.00;97508.09;5111602;28;20035;-78
2022/11/26 07:59:02;;;;;;;16.65;7.00;;;;;;;4.57;100.00;97506.91;5111246;28;20054;-77
2022/11/26 08:01:29;;;;;;;19.60;7.28;;;;;;;4.67;100.00;97498.94;5098114;28;20050;-78
2022/11/26 08:03:57;;;;;;;16.63;6.85;;;;;;;4.44;100.00;97508.91;5097468;28;20043;-78
2022/11/26 08:06:26;;;;;;;14.13;6.70;;;;;;;4.46;100.00;97514.03;5096470;28;20071;-78
2022/11/26 08:08:55;;;;;;;14.90;6.55;;;;;;;4.50;100.00;97522.47;5098533;28;20043;-77
2022/11/26 08:11:23;;;;;;;15.82;5.80;;;;;;;4.53;100.00;97521.94;5096773;28;20040;-77
2022/11/26 08:13:53;;;;;;;11.40;5.80;;;;;;;4.55;100.00;97523.34;5100228;28;20483;-78
2022/11/26 08:16:21;;;;;;;13.10;6.45;;;;;;;4.56;100.00;97529.53;5097626;28;20044;-77
2022/11/26 08:18:48;;;;;;;16.45;6.72;;;;;;;4.62;100.00;97525.84;5098434;28;20542;-77
2022/11/26 08:21:14;;;;;;;18.02;6.82;;;;;;;4.69;100.00;97529.97;5098095;28;20059;-77
2022/11/26 08:23:41;;;;;;;13.98;7.07;;;;;;;4.74;100.00;97528.41;5099453;28;20043;-77
2022/11/26 08:26:10;;;;;;;15.60;7.63;;;;;;;4.60;100.00;97539.59;5097240;28;20048;-77
2022/11/26 08:28:36;;;;;;;13.45;6.75;;;;;;;4.66;100.00;97532.38;5096307;28;20048;-76
2022/11/26 08:31:05;;;;;;;13.05;6.82;;;;;;;4.75;100.00;97536.28;5096694;28;20044;-77
2022/11/26 08:33:33;;;;;;;17.35;7.20;;;;;;;4.79;100.00;97540.06;5096947;28;20059;-77
2022/11/26 08:36:00;;;;;;;13.98;7.25;;;;;;;4.87;100.00;97541.53;5096687;28;20495;-76
2022/11/26 08:38:29;;;;;;;18.23;7.15;;;;;;;4.97;100.00;97542.47;5095862;28;20720;-77
2022/11/26 08:40:59;;;;;;;13.07;6.30;;;;;;;5.02;100.00;97541.72;5094941;28;20048;-76
2022/11/26 08:43:27;;;;;;;18.73;7.15;;;;;;;5.10;100.00;97545.81;5098552;28;20044;-76
2022/11/26 08:45:54;;;;;;;14.27;5.82;;;;;;;5.13;100.00;97542.63;5096122;28;20051;-76
2022/11/26 08:48:23;;;;;;;14.60;6.35;;;;;;;5.34;100.00;97551.75;5095521;28;20059;-76
2022/11/26 08:50:51;;;;;;;13.05;6.78;;;;;;;5.69;100.00;97553.97;5097660;28;20047;-78
2022/11/26 08:53:18;;;;;;;13.73;6.80;;;;;;;5.93;100.00;97552.56;5095064;28;20040;-77
2022/11/26 08:55:44;;;;;;;13.20;6.47;;;;;;;5.98;100.00;97552.63;5096163;28;20050;-75
2022/11/26 08:58:11;;;;;;;15.35;6.68;;;;;;;6.06;100.00;97553.22;5097478;28;20139;-78
2022/11/26 09:00:40;;;;;;;10.32;5.90;;;;;;;6.09;100.00;97558.09;5097402;28;20636;-74
2022/11/26 09:03:06;;;;;;;14.10;6.07;;;;;;;5.70;100.00;97566.41;5098269;28;20503;-78
2022/11/26 09:05:33;;;;;;;14.60;5.82;;;;;;;5.95;100.00;97558.56;5096408;28;20048;-75
2022/11/26 09:08:01;;;;;;;12.13;5.78;;;;;;;5.85;100.00;97560.34;5096854;28;20036;-76
2022/11/26 09:10:28;;;;;;;14.50;6.35;;;;;;;5.97;100.00;97572.63;5097687;28;20047;-75
2022/11/26 09:12:54;;;;;;;11.38;7.15;;;;;;;5.94;100.00;97556.91;5103679;28;20051;-76
2022/11/26 09:15:21;;;;;;;16.40;6.78;;;;;;;6.08;100.00;97570.00;5117454;28;20047;-77
2022/11/26 09:17:47;;;;;;;13.80;6.45;;;;;;;5.87;100.00;97577.91;5100128;28;20444;-77
2022/11/26 09:20:16;;;;;;;13.70;6.07;;;;;;;6.01;100.00;97579.16;5103769;28;20112;-77
2022/11/26 09:22:42;;;;;;;11.65;6.13;;;;;;;5.85;100.00;97580.06;5104085;28;20131;-77
2022/11/26 09:25:13;;;;;;;13.63;6.60;;;;;;;5.90;100.00;97582.81;5104253;28;20050;-76
2022/11/26 09:27:39;;;;;;;16.85;6.60;;;;;;;5.86;100.00;97587.09;5105254;28;20096;-76
2022/11/26 09:30:07;;;;;;;13.98;6.35;;;;;;;5.83;100.00;97587.59;5105613;28;20056;-77
2022/11/26 09:32:34;;;;;;;11.48;6.20;;;;;;;5.73;100.00;97579.41;5104894;28;20062;-76
2022/11/26 09:35:00;;;;;;;10.65;6.20;;;;;;;5.74;100.00;97595.38;5102440;28;20047;-76
2022/11/26 09:37:27;;;;;;;23.50;6.05;;;;;;;5.71;100.00;97595.06;5098797;28;20614;-75
2022/11/26 09:39:54;;;;;;;13.77;6.10;;;;;;;5.75;100.00;97597.00;5100709;28;20044;-75
2022/11/26 09:42:38;;;;;;;13.32;5.88;;;;;;;5.97;100.00;97605.06;5104866;28;20048;-76
2022/11/26 09:45:15;;;;;;;11.68;5.88;;;;;;;5.96;100.00;97605.34;5081594;28;20135;-76
2022/11/26 09:47:46;;;;;;;12.15;6.38;;;;;;;5.83;100.00;97606.53;5079195;28;20059;-78
2022/11/26 09:50:23;;;;;;;13.57;6.20;;;;;;;5.68;100.00;97609.09;5075548;28;20056;-77
2022/11/26 09:52:53;;;;;;;15.15;6.47;;;;;;;5.88;100.00;97611.16;5076548;28;20044;-77
2022/11/26 09:55:24;;;;;;;16.27;7.10;;;;;;;5.68;100.00;97609.09;5093747;28;20055;-78
2022/11/26 09:58:03;;;;;;;17.83;6.82;;;;;;;5.91;100.00;97611.50;5097374;28;20052;-77
2022/11/26 10:00:35;;;;;;;13.25;6.53;;;;;;;5.97;100.00;97610.47;5096912;28;20040;-77
2022/11/26 10:03:02;;;;;;;17.67;6.97;;;;;;;5.79;100.00;97613.50;5096319;28;20581;-78
2022/11/26 10:05:42;;;;;;;13.55;6.30;;;;;;;5.90;100.00;97609.00;5095604;28;20054;-78
2022/11/26 10:08:22;;;;;;;22.15;7.40;;;;;;;5.99;100.00;97602.91;5095626;28;20044;-76
2022/11/26 10:10:54;;;;;;;16.80;6.50;;;;;;;6.13;100.00;97597.88;5096673;28;20103;-77
2022/11/26 10:13:40;;;;;;;14.75;8.00;;;;;;;6.33;100.00;97597.22;5098733;28;20114;-77
2022/11/26 10:16:14;;;;;;;14.95;6.55;;;;;;;6.38;100.00;97593.75;5096072;28;20051;-78
2022/11/26 10:18:53;;;;;;;17.98;7.18;;;;;;;6.48;100.00;97597.34;5076975;28;20234;-77
2022/11/26 10:21:23;;;;;;;16.08;7.10;;;;;;;6.71;100.00;97598.00;5076998;28;20131;-76
2022/11/26 10:23:57;;;;;;;13.65;7.30;;;;;;;6.97;100.00;97594.34;5096867;28;20040;-79
2022/11/26 10:26:28;;;;;;;13.77;6.55;;;;;;;7.10;97.11;97584.06;5097945;28;20044;-77
2022/11/26 10:29:06;;;;;;;14.30;6.53;;;;;;;7.10;95.06;97594.91;5097111;28;20054;-77
2022/11/26 10:31:34;;;;;;;13.80;6.20;;;;;;;6.88;96.46;97593.19;5098948;28;20039;-77
2022/11/26 10:34:03;;;;;;;16.35;7.82;;;;;;;6.89;95.86;97589.44;5096304;28;20499;-76
2022/11/26 10:36:35;;;;;;;12.00;6.45;;;;;;;7.01;95.98;97591.91;5097981;28;20044;-77
2022/11/26 10:39:02;;;;;;;13.07;6.45;;;;;;;6.95;95.94;97599.22;5098801;28;20036;-76
2022/11/26 10:41:31;;;;;;;14.93;6.63;;;;;;;6.78;95.94;97593.16;5097133;28;20410;-79
2022/11/26 10:44:31;;;;;;;14.82;6.82;;;;;;;6.49;96.44;97595.44;5097245;28;20088;-77
2022/11/26 10:46:59;;;;;;;15.07;7.00;;;;;;;6.49;97.59;97590.03;5093658;28;20093;-77
2022/11/26 10:49:28;;;;;;;10.27;6.28;;;;;;;6.30;97.77;97583.41;5096640;28;20475;-78
2022/11/26 10:52:00;;;;;;;13.25;6.13;;;;;;;6.46;97.53;97590.53;5101286;28;20044;-77
2022/11/26 10:54:32;;;;;;;16.38;7.07;;;;;;;6.44;97.99;97588.09;5099282;28;20044;-77
2022/11/26 10:57:04;;;;;;;18.75;6.97;;;;;;;6.62;97.43;97584.13;5101506;28;20044;-78
2022/11/26 10:59:46;;;;;;;18.48;6.60;;;;;;;6.65;94.77;97588.22;5098532;28;20036;-78
2022/11/26 11:02:29;;;;;;;15.00;7.20;;;;;;;6.51;95.67;97577.84;5096425;28;20040;-77
2022/11/26 11:04:57;;;;;;;16.57;7.87;;;;;;;6.59;95.75;97578.44;5097651;28;20068;-77
2022/11/26 11:07:30;;;;;;;13.13;6.53;;;;;;;6.73;95.82;97576.88;5098537;28;20046;-77
2022/11/26 11:10:03;;;;;;;16.43;6.97;;;;;;;6.52;95.53;97578.66;5096226;28;20067;-78
2022/11/26 11:12:29;;;;;;;17.48;7.05;;;;;;;6.65;95.93;97572.78;5119336;28;20601;-77
2022/11/26 11:15:18;;;;;;;19.27;7.10;;;;;;;6.60;95.73;97564.66;5118915;27;20044;-76
2022/11/26 11:17:48;;;;;;;18.58;6.88;;;;;;;6.87;94.69;97561.78;5118682;27;20059;-76
2022/11/26 11:20:27;;;;;;;13.82;5.85;;;;;;;7.27;90.16;97563.03;5121273;28;20453;-77
2022/11/26 11:23:02;;;;;;;13.48;5.38;;;;;;;7.35;88.09;97554.34;5120235;28;20047;-76
2022/11/26 11:25:30;;;;;;;11.45;5.25;;;;;;;7.25;87.38;97559.75;5122509;28;20036;-77
2022/11/26 11:28:04;;;;;;;15.20;5.72;;;;;;;7.16;88.87;97558.66;5121571;28;20127;-76
2022/11/26 11:30:34;;;;;;;;;;;;;;;7.12;89.94;97546.72;5122837;28;20046;-78
2022/11/26 11:33:11;;;;;;;10.52;4.93;;;;;;;7.14;88.15;97549.97;5120148;28;19924;-77
2022/11/26 11:35:39;;;;;;;11.35;5.47;;;;;;;7.19;89.86;97549.97;5120159;28;20066;-77